createdAt,value
2023-01-20T00:01:37.926Z,5.21
2023-01-20T00:04:05.787Z,5.22
2023-01-20T00:06:33.677Z,5.24
2023-01-20T00:09:03.058Z,5.25
2023-01-20T00:11:31.166Z,5.27
2023-01-20T00:14:01.680Z,5.21
2023-01-20T00:16:32.044Z,5.18
2023-01-20T00:18:59.824Z,5.19
2023-01-20T00:21:27.558Z,5.11
2023-01-20T00:23:55.140Z,5.09
2023-01-20T00:26:24.623Z,5.04
2023-01-20T00:28:57.831Z,5.03
2023-01-20T00:31:27.881Z,5.03
2023-01-20T00:33:57.971Z,5.02
2023-01-20T00:36:27.467Z,4.96
2023-01-20T00:38:55.186Z,4.96
2023-01-20T00:41:22.988Z,4.98
2023-01-20T00:43:50.579Z,4.90
2023-01-20T00:46:18.375Z,4.94
2023-01-20T00:48:45.895Z,4.91
2023-01-20T00:51:13.459Z,4.97
2023-01-20T00:53:45.357Z,4.96
2023-01-20T00:56:13.297Z,4.94
2023-01-20T00:58:48.091Z,4.91
2023-01-20T01:01:15.814Z,4.96
2023-01-20T01:03:44.551Z,4.93
2023-01-20T01:06:15.448Z,4.92
2023-01-20T01:08:44.189Z,4.94
2023-01-20T01:11:13.076Z,4.96
2023-01-20T01:13:41.016Z,4.94
2023-01-20T01:16:14.310Z,4.96
2023-01-20T01:18:42.971Z,4.98
2023-01-20T01:21:14.339Z,4.94
2023-01-20T01:23:42.491Z,4.97
2023-01-20T01:26:10.555Z,4.93
2023-01-20T01:28:38.095Z,4.95
2023-01-20T01:31:08.392Z,4.96
2023-01-20T01:33:36.513Z,4.95
2023-01-20T01:36:04.665Z,4.93
2023-01-20T01:38:33.153Z,4.93
2023-01-20T01:41:01.617Z,4.96
2023-01-20T01:43:32.322Z,4.97
2023-01-20T01:46:00.233Z,5.02
2023-01-20T01:48:30.425Z,5.01
2023-01-20T01:51:01.212Z,5.00
2023-01-20T01:53:32.539Z,5.01
2023-01-20T01:56:02.895Z,5.07
2023-01-20T01:58:34.841Z,5.05
2023-01-20T02:01:02.639Z,5.04
2023-01-20T02:03:40.193Z,5.03
2023-01-20T02:06:09.166Z,5.00
2023-01-20T02:08:37.589Z,4.94
2023-01-20T02:11:05.268Z,4.97
2023-01-20T02:13:34.012Z,4.92
2023-01-20T02:16:38.343Z,4.93
2023-01-20T02:19:21.141Z,4.97
2023-01-20T02:22:25.421Z,4.97
2023-01-20T02:25:11.001Z,4.99
2023-01-20T02:28:16.814Z,4.97
2023-01-20T02:31:02.915Z,4.93
2023-01-20T02:33:45.466Z,4.88
2023-01-20T02:36:22.474Z,4.85
2023-01-20T02:39:13.697Z,4.87
2023-01-20T02:42:11.708Z,4.90
2023-01-20T02:44:59.383Z,4.94
2023-01-20T02:47:41.421Z,4.92
2023-01-20T02:50:40.848Z,4.87
2023-01-20T02:53:09.535Z,4.85
2023-01-20T02:55:47.430Z,4.80
2023-01-20T02:58:59.184Z,4.85
2023-01-20T03:01:54.160Z,4.89
2023-01-20T03:04:33.762Z,4.93
2023-01-20T03:07:03.711Z,4.95
2023-01-20T03:09:37.679Z,4.98
2023-01-20T03:12:14.108Z,4.99
2023-01-20T03:14:41.627Z,4.95
2023-01-20T03:17:09.405Z,4.97
2023-01-20T03:19:37.083Z,4.97
2023-01-20T03:22:04.923Z,5.02
2023-01-20T03:24:33.673Z,5.04
2023-01-20T03:27:01.397Z,5.01
2023-01-20T03:29:30.693Z,5.02
2023-01-20T03:32:01.076Z,4.99
2023-01-20T03:34:32.080Z,4.93
2023-01-20T03:37:01.067Z,4.91
2023-01-20T03:39:29.000Z,4.92
2023-01-20T03:42:08.244Z,4.90
2023-01-20T03:45:00.032Z,4.88
2023-01-20T03:47:58.696Z,4.82
2023-01-20T03:50:47.817Z,4.82
2023-01-20T03:53:37.529Z,4.82
2023-01-20T03:56:12.794Z,4.79
2023-01-20T03:58:44.417Z,4.77
2023-01-20T04:01:17.356Z,4.74
2023-01-20T04:03:51.419Z,4.70
2023-01-20T04:06:21.573Z,4.64
2023-01-20T04:08:58.656Z,4.60
2023-01-20T04:11:27.292Z,4.59
2023-01-20T04:13:55.174Z,4.58
2023-01-20T04:16:24.475Z,4.58
2023-01-20T04:18:53.131Z,4.54
2023-01-20T04:21:41.986Z,4.53
2023-01-20T04:24:19.374Z,4.54
2023-01-20T04:26:47.052Z,4.55
2023-01-20T04:29:14.632Z,4.49
2023-01-20T04:31:42.304Z,4.42
2023-01-20T04:34:13.575Z,4.44
2023-01-20T04:36:41.727Z,4.38
2023-01-20T04:39:09.267Z,4.35
2023-01-20T04:41:36.863Z,4.34
2023-01-20T04:44:04.439Z,4.29
2023-01-20T04:46:32.108Z,4.24
2023-01-20T04:48:59.592Z,4.27
2023-01-20T04:51:27.206Z,4.22
2023-01-20T04:53:58.490Z,4.19
2023-01-20T04:56:26.555Z,4.16
2023-01-20T04:58:54.059Z,4.16
2023-01-20T05:01:21.817Z,4.09
2023-01-20T05:03:49.432Z,4.11
2023-01-20T05:06:18.881Z,4.09
2023-01-20T05:08:46.474Z,4.08
2023-01-20T05:11:14.035Z,4.06
2023-01-20T05:13:41.633Z,4.08
2023-01-20T05:16:10.293Z,4.08
2023-01-20T05:18:37.897Z,4.09
2023-01-20T05:21:07.987Z,4.07
2023-01-20T05:23:36.058Z,4.04
2023-01-20T05:26:03.648Z,4.05
2023-01-20T05:28:31.199Z,4.07
2023-01-20T05:30:58.832Z,4.08
2023-01-20T05:33:26.456Z,4.12
2023-01-20T05:35:55.997Z,4.11
2023-01-20T05:38:23.509Z,4.12
2023-01-20T05:40:51.051Z,4.13
2023-01-20T05:43:18.518Z,4.14
2023-01-20T05:45:46.831Z,4.16
2023-01-20T05:48:14.379Z,4.13
2023-01-20T05:50:43.145Z,4.20
2023-01-20T05:53:10.650Z,4.15
2023-01-20T05:55:38.223Z,4.16
2023-01-20T05:58:06.602Z,4.13
2023-01-20T06:00:34.312Z,4.11
2023-01-20T06:03:02.242Z,4.15
2023-01-20T06:05:30.377Z,4.16
2023-01-20T06:07:58.819Z,4.18
2023-01-20T06:10:28.272Z,4.18
2023-01-20T06:12:56.236Z,4.22
2023-01-20T06:15:25.421Z,4.21
2023-01-20T06:17:55.019Z,4.26
2023-01-20T06:20:22.701Z,4.23
2023-01-20T06:22:55.118Z,4.26
2023-01-20T06:25:22.784Z,4.28
2023-01-20T06:27:50.271Z,4.35
2023-01-20T06:30:18.165Z,4.37
2023-01-20T06:32:48.852Z,4.42
2023-01-20T06:35:16.962Z,4.40
2023-01-20T06:37:44.734Z,4.42
2023-01-20T06:40:12.807Z,4.35
2023-01-20T06:42:40.280Z,4.45
2023-01-20T06:45:08.648Z,4.43
2023-01-20T06:47:36.218Z,4.47
2023-01-20T06:50:04.031Z,4.43
2023-01-20T06:52:31.760Z,4.36
2023-01-20T06:54:59.315Z,4.39
2023-01-20T06:57:26.900Z,4.43
2023-01-20T06:59:54.439Z,4.42
2023-01-20T07:02:21.967Z,4.39
2023-01-20T07:04:52.651Z,4.41
2023-01-20T07:07:20.187Z,4.45
2023-01-20T07:09:48.101Z,4.45
2023-01-20T07:12:15.666Z,4.49
2023-01-20T07:14:43.167Z,4.51
2023-01-20T07:17:12.614Z,4.54
2023-01-20T07:19:40.142Z,4.55
2023-01-20T07:22:07.659Z,4.56
2023-01-20T07:24:35.255Z,4.49
2023-01-20T07:27:02.817Z,4.61
2023-01-20T07:29:30.392Z,4.64
2023-01-20T11:19:11.348Z,7.20
2023-01-20T11:21:40.279Z,7.40
2023-01-20T11:24:31.167Z,7.40
2023-01-20T11:27:07.297Z,7.58
2023-01-20T11:29:42.676Z,7.71
2023-01-20T11:32:32.572Z,7.43
2023-01-20T11:40:20.264Z,7.33
2023-01-20T11:42:49.662Z,7.32
2023-01-20T11:45:34.553Z,7.34
2023-01-20T11:48:03.955Z,7.17
2023-01-20T11:50:34.536Z,7.13
2023-01-20T11:53:33.217Z,7.20
2023-01-20T11:56:24.864Z,7.21
2023-01-20T11:59:02.064Z,7.34
2023-01-20T12:01:50.740Z,7.42
2023-01-20T12:04:49.251Z,7.49
2023-01-20T12:07:26.070Z,7.67
2023-01-20T12:09:59.698Z,7.95
2023-01-20T12:13:16.192Z,7.92
2023-01-20T12:15:54.847Z,7.71
2023-01-20T12:19:04.846Z,7.65
2023-01-20T12:21:41.291Z,7.54
2023-01-20T12:24:38.701Z,7.65
2023-01-20T12:27:20.942Z,7.97
2023-01-20T12:29:52.080Z,8.04
2023-01-20T12:32:20.046Z,8.09
2023-01-20T12:34:47.744Z,7.88
2023-01-20T12:37:27.401Z,7.74
2023-01-20T12:40:36.904Z,7.72
2023-01-20T12:43:17.073Z,7.69
2023-01-20T12:45:59.760Z,7.64
2023-01-20T12:48:54.527Z,7.53
2023-01-20T12:51:33.950Z,7.46
2023-01-20T12:54:47.872Z,7.50
2023-01-20T12:57:34.835Z,7.50
2023-01-20T13:00:40.780Z,7.38
2023-01-20T13:03:27.546Z,7.27
2023-01-20T13:06:36.115Z,7.07
2023-01-20T13:09:22.733Z,7.07
2023-01-20T13:12:13.967Z,6.99
2023-01-20T13:15:04.533Z,6.87
2023-01-20T13:17:40.617Z,6.82
2023-01-20T13:20:28.106Z,6.74
2023-01-20T13:22:58.608Z,6.75
2023-01-20T13:25:27.474Z,6.75
2023-01-20T13:27:55.692Z,6.80
2023-01-20T13:30:43.165Z,6.69
2023-01-20T13:33:29.244Z,6.68
2023-01-20T13:35:59.791Z,6.52
2023-01-20T13:38:36.008Z,6.46
2023-01-20T13:41:06.179Z,6.43
2023-01-20T13:43:53.310Z,6.37
2023-01-20T13:46:21.349Z,6.24
2023-01-20T13:49:59.978Z,6.14
2023-01-20T13:52:51.096Z,5.99
2023-01-20T13:55:44.089Z,5.94
2023-01-20T13:58:23.982Z,5.81
2023-01-20T14:00:54.542Z,5.68
2023-01-20T14:03:30.760Z,5.59
2023-01-20T14:06:21.012Z,5.52
2023-01-20T14:08:50.872Z,5.45
2023-01-20T14:11:26.698Z,5.38
2023-01-20T14:14:03.109Z,5.30
2023-01-20T14:16:34.810Z,5.30
2023-01-20T14:19:18.796Z,5.24
2023-01-20T14:21:54.789Z,5.23
2023-01-20T14:24:29.359Z,5.17
2023-01-20T14:27:27.319Z,5.05
2023-01-20T14:29:57.655Z,4.96
2023-01-20T14:32:34.253Z,4.78
2023-01-20T14:35:04.680Z,4.76
2023-01-20T14:37:36.031Z,4.72
2023-01-20T14:40:26.313Z,4.63
2023-01-20T14:43:19.832Z,4.58
2023-01-20T14:45:51.777Z,4.53
2023-01-20T14:48:34.052Z,4.48
2023-01-20T14:51:06.148Z,4.41
2023-01-20T14:53:34.025Z,4.40
2023-01-20T14:56:07.927Z,4.30
2023-01-20T14:58:36.585Z,4.23
2023-01-20T15:01:06.958Z,4.21
2023-01-20T15:03:34.781Z,4.11
2023-01-20T15:06:05.902Z,4.03
2023-01-20T15:08:37.542Z,3.97
2023-01-20T15:11:12.384Z,3.90
2023-01-20T15:14:08.708Z,3.86
2023-01-20T15:16:37.388Z,3.83
2023-01-20T15:19:17.535Z,3.79
2023-01-20T15:25:38.671Z,3.77
2023-01-20T15:28:06.270Z,3.66
2023-01-20T15:30:35.431Z,3.69
2023-01-20T15:33:03.360Z,3.66
2023-01-20T15:35:33.248Z,3.64
2023-01-20T15:38:11.841Z,3.58
2023-01-20T15:40:39.777Z,3.55
2023-01-20T15:43:25.624Z,3.50
2023-01-20T15:45:53.651Z,3.53
2023-01-20T15:48:21.804Z,3.46
2023-01-20T15:50:49.538Z,3.40
2023-01-20T15:53:17.273Z,3.36
2023-01-20T15:55:49.313Z,3.35
2023-01-20T15:58:29.759Z,3.32
2023-01-20T16:01:00.376Z,3.28
2023-01-20T16:03:28.587Z,3.32
2023-01-20T16:05:58.948Z,3.27
2023-01-20T16:08:35.518Z,3.27
2023-01-20T16:11:04.356Z,3.22
2023-01-20T16:13:32.158Z,3.18
2023-01-20T16:16:01.393Z,3.15
2023-01-20T16:18:30.336Z,3.11
2023-01-20T16:20:58.122Z,3.17
2023-01-20T16:23:25.748Z,3.15
2023-01-20T16:25:54.914Z,3.11
2023-01-20T16:28:24.311Z,3.10
2023-01-20T16:30:54.041Z,3.09
2023-01-20T16:33:25.094Z,3.18
2023-01-20T16:35:55.556Z,3.16
2023-01-20T16:38:25.200Z,3.13
2023-01-20T16:40:57.642Z,3.06
2023-01-20T16:43:25.970Z,2.99
2023-01-20T16:45:55.521Z,3.00
2023-01-20T16:48:24.392Z,2.98
2023-01-20T16:50:53.235Z,2.92
2023-01-20T16:53:21.158Z,2.83
2023-01-20T16:55:49.434Z,2.83
2023-01-20T16:58:17.316Z,2.82
2023-01-20T17:00:44.947Z,2.74
2023-01-20T17:03:12.908Z,2.80
2023-01-20T22:05:25.291Z,2.10
2023-01-20T22:07:53.080Z,2.09
2023-01-20T22:10:21.196Z,2.09
2023-01-20T22:12:50.500Z,2.10
2023-01-20T22:15:18.908Z,2.05
2023-01-20T22:17:48.067Z,2.00
2023-01-20T22:20:17.216Z,2.05
2023-01-20T22:22:46.258Z,2.02
2023-01-20T22:25:15.217Z,2.02
2023-01-20T22:27:44.141Z,2.00
2023-01-20T22:30:19.050Z,2.02
2023-01-20T22:35:39.307Z,2.02
2023-01-20T22:38:08.325Z,1.97
2023-01-20T22:40:38.039Z,1.88
2023-01-20T22:43:07.527Z,1.90
2023-01-20T22:45:49.048Z,1.85
2023-01-20T22:48:19.310Z,1.82
2023-01-20T22:50:49.364Z,1.82
2023-01-20T22:56:32.596Z,1.76
2023-01-20T22:59:01.722Z,1.75
2023-01-20T23:01:34.662Z,1.75
2023-01-20T23:04:32.790Z,1.67
2023-01-20T23:07:02.278Z,1.71
2023-01-20T23:09:34.032Z,1.63
2023-01-20T23:12:03.073Z,1.59
2023-01-20T23:14:50.589Z,1.56
2023-01-20T23:17:19.351Z,1.59
2023-01-20T23:19:53.920Z,1.60
2023-01-20T23:22:24.192Z,1.59
2023-01-20T23:24:52.736Z,1.58
2023-01-20T23:27:22.116Z,1.52
2023-01-20T23:29:52.726Z,1.48
2023-01-20T23:32:21.851Z,1.46
2023-01-20T23:34:50.962Z,1.50
2023-01-20T23:37:19.605Z,1.50
2023-01-20T23:39:52.484Z,1.49
2023-01-20T23:42:21.808Z,1.43
2023-01-20T23:44:51.296Z,1.43
2023-01-20T23:47:19.812Z,1.39
2023-01-20T23:49:48.247Z,1.36
2023-01-20T23:52:17.012Z,1.34
2023-01-20T23:54:45.625Z,1.29
2023-01-20T23:57:14.471Z,1.29
2023-01-20T23:59:42.889Z,1.32
